N597ER KPRC-KSMO
Flight info
| Callsign | N597ER |
|---|---|
| Flight time | 2h 8m |
| Altitude | 10500 |
| Route | DRK V12 PMD KIMMO3 |
| Aircraft | DA42/L-SBDGRY/S |
Departure
| Time | 2026-05-04 04:17 |
|---|---|
| Airport | Prescott Regional Airport - Ernest A. Love Field (KPRC) |
Arrival
| Time | 2026-05-04 06:25 |
|---|---|
| Airport | Santa Monica Municipal Airport (KSMO) |
| Time | Latitude | Longitude | Altitude | Speed | Heading |
|---|---|---|---|---|---|
| 2026-05-04 03:45 | 34.65096 | -112.42048 | 5017 ft | 0 kts | 130° |
| 2026-05-04 04:06 | 34.65095 | -112.42048 | 5017 ft | 0 kts | 133° |
| 2026-05-04 04:06 | 34.65090 | -112.42028 | 5016 ft | 7 kts | 41° |
| 2026-05-04 04:06 | 34.65132 | -112.42028 | 5015 ft | 5 kts | 320° |
| 2026-05-04 04:06 | 34.65143 | -112.42038 | 5015 ft | 1 kts | 323° |
| 2026-05-04 04:09 | 34.65180 | -112.42057 | 5013 ft | 9 kts | 21° |
| 2026-05-04 04:09 | 34.65241 | -112.41995 | 5010 ft | 14 kts | 39° |
| 2026-05-04 04:09 | 34.65319 | -112.41911 | 5007 ft | 16 kts | 43° |
| 2026-05-04 04:09 | 34.65410 | -112.41814 | 5000 ft | 19 kts | 41° |
| 2026-05-04 04:10 | 34.65509 | -112.41709 | 4997 ft | 19 kts | 41° |
| 2026-05-04 04:10 | 34.65610 | -112.41602 | 4991 ft | 20 kts | 40° |
| 2026-05-04 04:10 | 34.65713 | -112.41491 | 4987 ft | 20 kts | 41° |
| 2026-05-04 04:10 | 34.65817 | -112.41374 | 4980 ft | 21 kts | 54° |
| 2026-05-04 04:11 | 34.65894 | -112.41234 | 4973 ft | 20 kts | 46° |
| 2026-05-04 04:11 | 34.66000 | -112.41118 | 4965 ft | 22 kts | 41° |
| 2026-05-04 04:11 | 34.66102 | -112.41012 | 4957 ft | 15 kts | 52° |
| 2026-05-04 04:11 | 34.66134 | -112.40973 | 4957 ft | 0 kts | 34° |
| 2026-05-04 04:12 | 34.66141 | -112.40970 | 4958 ft | 3 kts | 2° |
| 2026-05-04 04:12 | 34.66158 | -112.40994 | 4958 ft | 1 kts | 266° |
| 2026-05-04 04:14 | 34.66155 | -112.41009 | 4958 ft | 4 kts | 256° |
| 2026-05-04 04:14 | 34.66156 | -112.41055 | 4959 ft | 5 kts | 291° |
| 2026-05-04 04:14 | 34.66163 | -112.41068 | 4957 ft | 0 kts | 312° |
| 2026-05-04 04:15 | 34.66168 | -112.41074 | 4957 ft | 7 kts | 312° |
| 2026-05-04 04:16 | 34.66203 | -112.41148 | 4959 ft | 10 kts | 248° |
| 2026-05-04 04:16 | 34.66170 | -112.41187 | 4960 ft | 21 kts | 218° |
| 2026-05-04 04:16 | 34.65929 | -112.41442 | 4978 ft | 68 kts | 221° |
| 2026-05-04 04:16 | 34.65489 | -112.41908 | 5000 ft | 97 kts | 221° |
| 2026-05-04 04:17 | 34.64958 | -112.42448 | 5187 ft | 100 kts | 219° |
| 2026-05-04 04:17 | 34.64424 | -112.42986 | 5478 ft | 98 kts | 218° |
| 2026-05-04 04:17 | 34.63926 | -112.43545 | 5757 ft | 98 kts | 220° |
| 2026-05-04 04:17 | 34.63417 | -112.44102 | 6019 ft | 97 kts | 219° |
| 2026-05-04 04:18 | 34.62954 | -112.44635 | 6378 ft | 91 kts | 222° |
| 2026-05-04 04:18 | 34.62561 | -112.45198 | 6718 ft | 91 kts | 243° |
| 2026-05-04 04:18 | 34.62621 | -112.46012 | 6979 ft | 108 kts | 289° |
| 2026-05-04 04:18 | 34.63212 | -112.46621 | 7272 ft | 119 kts | 330° |
| 2026-05-04 04:19 | 34.64017 | -112.46964 | 7512 ft | 124 kts | 334° |
| 2026-05-04 04:19 | 34.64823 | -112.47278 | 7882 ft | 122 kts | 335° |
| 2026-05-04 04:19 | 34.65635 | -112.47606 | 8219 ft | 123 kts | 335° |
| 2026-05-04 04:19 | 34.66454 | -112.47955 | 8544 ft | 126 kts | 335° |
| 2026-05-04 04:20 | 34.67273 | -112.48292 | 8889 ft | 126 kts | 341° |
| 2026-05-04 04:20 | 34.68129 | -112.48528 | 9206 ft | 127 kts | 343° |
| 2026-05-04 04:20 | 34.68995 | -112.48754 | 9513 ft | 126 kts | 344° |
| 2026-05-04 04:20 | 34.69827 | -112.49060 | 9830 ft | 125 kts | 322° |
| 2026-05-04 04:21 | 34.70344 | -112.49872 | 9993 ft | 129 kts | 281° |
| 2026-05-04 04:21 | 34.70437 | -112.50992 | 10003 ft | 140 kts | 266° |
| 2026-05-04 04:21 | 34.70463 | -112.52224 | 10004 ft | 150 kts | 267° |
| 2026-05-04 04:21 | 34.70504 | -112.53517 | 9987 ft | 156 kts | 268° |
| 2026-05-04 04:22 | 34.70555 | -112.54847 | 9982 ft | 160 kts | 268° |
| 2026-05-04 04:22 | 34.70607 | -112.56189 | 9983 ft | 163 kts | 268° |
| 2026-05-04 04:22 | 34.70665 | -112.57581 | 9971 ft | 166 kts | 268° |
| 2026-05-04 04:22 | 34.70725 | -112.58982 | 9953 ft | 165 kts | 268° |
| 2026-05-04 04:23 | 34.70787 | -112.60360 | 9937 ft | 161 kts | 268° |
| 2026-05-04 04:23 | 34.70842 | -112.61707 | 9929 ft | 158 kts | 268° |
| 2026-05-04 04:23 | 34.70897 | -112.63032 | 9917 ft | 156 kts | 268° |
| 2026-05-04 04:23 | 34.70952 | -112.64351 | 9908 ft | 155 kts | 268° |
| 2026-05-04 04:24 | 34.71005 | -112.65649 | 9903 ft | 153 kts | 268° |
| 2026-05-04 04:24 | 34.71059 | -112.66943 | 9892 ft | 153 kts | 267° |
| 2026-05-04 04:24 | 34.71111 | -112.68242 | 9878 ft | 154 kts | 268° |
| 2026-05-04 04:24 | 34.71141 | -112.69096 | 9878 ft | 152 kts | 267° |
| 2026-05-04 04:25 | 34.71177 | -112.70374 | 9878 ft | 153 kts | 267° |
| 2026-05-04 04:25 | 34.71215 | -112.71681 | 9864 ft | 156 kts | 267° |
| 2026-05-04 04:25 | 34.71257 | -112.73000 | 9857 ft | 157 kts | 267° |
| 2026-05-04 04:25 | 34.71295 | -112.74323 | 9842 ft | 157 kts | 266° |
| 2026-05-04 04:26 | 34.71332 | -112.75652 | 9828 ft | 158 kts | 267° |
| 2026-05-04 04:26 | 34.71375 | -112.76971 | 9830 ft | 155 kts | 268° |
| 2026-05-04 04:26 | 34.71429 | -112.78277 | 9808 ft | 154 kts | 268° |
| 2026-05-04 04:26 | 34.71479 | -112.79571 | 9807 ft | 155 kts | 268° |
| 2026-05-04 04:27 | 34.71530 | -112.80880 | 9789 ft | 154 kts | 268° |
| 2026-05-04 04:27 | 34.71578 | -112.82182 | 9784 ft | 155 kts | 267° |
| 2026-05-04 04:27 | 34.71625 | -112.83489 | 9778 ft | 155 kts | 268° |
| 2026-05-04 04:27 | 34.71674 | -112.84811 | 9769 ft | 158 kts | 268° |
| 2026-05-04 04:28 | 34.71721 | -112.86149 | 9765 ft | 160 kts | 268° |
| 2026-05-04 04:28 | 34.71773 | -112.87505 | 9766 ft | 162 kts | 268° |
| 2026-05-04 04:28 | 34.71823 | -112.88864 | 9763 ft | 160 kts | 268° |
| 2026-05-04 04:28 | 34.71876 | -112.90222 | 9767 ft | 162 kts | 268° |
| 2026-05-04 04:29 | 34.71927 | -112.91567 | 9755 ft | 161 kts | 268° |
| 2026-05-04 04:29 | 34.71974 | -112.92909 | 9754 ft | 158 kts | 268° |
| 2026-05-04 04:29 | 34.72020 | -112.94251 | 9758 ft | 159 kts | 268° |
| 2026-05-04 04:29 | 34.72067 | -112.95582 | 9762 ft | 158 kts | 267° |
| 2026-05-04 04:30 | 34.72113 | -112.96921 | 9753 ft | 158 kts | 268° |
| 2026-05-04 04:30 | 34.72164 | -112.98251 | 9751 ft | 157 kts | 268° |
| 2026-05-04 04:30 | 34.72213 | -112.99580 | 9754 ft | 158 kts | 268° |
| 2026-05-04 04:30 | 34.72260 | -113.00911 | 9753 ft | 158 kts | 267° |
| 2026-05-04 04:31 | 34.72308 | -113.02253 | 9750 ft | 159 kts | 267° |
| 2026-05-04 04:31 | 34.72356 | -113.03590 | 9750 ft | 158 kts | 267° |
| 2026-05-04 04:31 | 34.72403 | -113.04928 | 9745 ft | 158 kts | 268° |
| 2026-05-04 04:31 | 34.72451 | -113.06260 | 9747 ft | 157 kts | 268° |
| 2026-05-04 04:32 | 34.72498 | -113.07582 | 9742 ft | 156 kts | 267° |
| 2026-05-04 04:32 | 34.72544 | -113.08899 | 9742 ft | 155 kts | 267° |
| 2026-05-04 04:32 | 34.72589 | -113.10200 | 9741 ft | 156 kts | 268° |
| 2026-05-04 04:32 | 34.72635 | -113.11507 | 9738 ft | 154 kts | 267° |
| 2026-05-04 04:33 | 34.72679 | -113.12830 | 9741 ft | 159 kts | 267° |
| 2026-05-04 04:33 | 34.72725 | -113.14187 | 9740 ft | 162 kts | 268° |
| 2026-05-04 04:33 | 34.72773 | -113.15555 | 9741 ft | 162 kts | 268° |
| 2026-05-04 04:33 | 34.72821 | -113.16933 | 9736 ft | 163 kts | 268° |
| 2026-05-04 04:34 | 34.72870 | -113.18321 | 9732 ft | 165 kts | 268° |
| 2026-05-04 04:34 | 34.72916 | -113.19715 | 9731 ft | 166 kts | 268° |
| 2026-05-04 04:34 | 34.72963 | -113.21117 | 9729 ft | 166 kts | 268° |
| 2026-05-04 04:34 | 34.73011 | -113.22525 | 9739 ft | 167 kts | 268° |
| 2026-05-04 04:35 | 34.73060 | -113.23916 | 9724 ft | 168 kts | 268° |
| 2026-05-04 04:35 | 34.73108 | -113.25355 | 9731 ft | 168 kts | 268° |
| 2026-05-04 04:35 | 34.73157 | -113.26772 | 9719 ft | 166 kts | 268° |
| 2026-05-04 04:35 | 34.73202 | -113.28147 | 9728 ft | 167 kts | 268° |
| 2026-05-04 04:36 | 34.73248 | -113.29558 | 9726 ft | 167 kts | 268° |
| 2026-05-04 04:36 | 34.73295 | -113.30965 | 9722 ft | 166 kts | 268° |
| 2026-05-04 04:36 | 34.73341 | -113.32369 | 9724 ft | 166 kts | 268° |
| 2026-05-04 04:36 | 34.73386 | -113.33774 | 9723 ft | 166 kts | 268° |
| 2026-05-04 04:37 | 34.73525 | -113.37965 | 9721 ft | 166 kts | 268° |
| 2026-05-04 04:37 | 34.73571 | -113.39369 | 9717 ft | 166 kts | 268° |
| 2026-05-04 04:38 | 34.73617 | -113.40775 | 9713 ft | 166 kts | 268° |
| 2026-05-04 04:38 | 34.73661 | -113.42186 | 9718 ft | 167 kts | 268° |
| 2026-05-04 04:38 | 34.73706 | -113.43604 | 9715 ft | 168 kts | 268° |
| 2026-05-04 04:38 | 34.73753 | -113.45017 | 9709 ft | 166 kts | 268° |
| 2026-05-04 04:39 | 34.73796 | -113.46423 | 9711 ft | 166 kts | 268° |
| 2026-05-04 04:39 | 34.73840 | -113.47830 | 9711 ft | 167 kts | 268° |
| 2026-05-04 04:39 | 34.73886 | -113.49247 | 9713 ft | 168 kts | 268° |
| 2026-05-04 04:39 | 34.73932 | -113.50663 | 9711 ft | 168 kts | 268° |
| 2026-05-04 04:40 | 34.73977 | -113.52071 | 9709 ft | 169 kts | 268° |
| 2026-05-04 04:40 | 34.74022 | -113.53495 | 9704 ft | 169 kts | 268° |
| 2026-05-04 04:40 | 34.74065 | -113.54916 | 9708 ft | 168 kts | 268° |
| 2026-05-04 04:40 | 34.74110 | -113.56334 | 9705 ft | 168 kts | 268° |
| 2026-05-04 04:41 | 34.74154 | -113.57751 | 9702 ft | 168 kts | 268° |
| 2026-05-04 04:41 | 34.74197 | -113.59173 | 9700 ft | 168 kts | 267° |
| 2026-05-04 04:41 | 34.74241 | -113.60597 | 9702 ft | 168 kts | 268° |
| 2026-05-04 04:41 | 34.74286 | -113.62014 | 9697 ft | 168 kts | 268° |
| 2026-05-04 04:42 | 34.74328 | -113.63429 | 9696 ft | 167 kts | 268° |
| 2026-05-04 04:42 | 34.74371 | -113.64846 | 9695 ft | 167 kts | 268° |
| 2026-05-04 04:42 | 34.74415 | -113.66255 | 9695 ft | 167 kts | 267° |
| 2026-05-04 04:42 | 34.74456 | -113.67670 | 9697 ft | 167 kts | 267° |
| 2026-05-04 04:43 | 34.74498 | -113.69083 | 9695 ft | 167 kts | 268° |
| 2026-05-04 04:43 | 34.74540 | -113.70474 | 9696 ft | 167 kts | 268° |
| 2026-05-04 04:43 | 34.74582 | -113.71890 | 9691 ft | 168 kts | 267° |
| 2026-05-04 04:43 | 34.74624 | -113.73309 | 9696 ft | 168 kts | 268° |
| 2026-05-04 04:44 | 34.74667 | -113.74732 | 9695 ft | 169 kts | 267° |
| 2026-05-04 04:44 | 34.74708 | -113.76156 | 9686 ft | 168 kts | 267° |
| 2026-05-04 04:44 | 34.74752 | -113.77579 | 9689 ft | 168 kts | 268° |
| 2026-05-04 04:44 | 34.74794 | -113.79002 | 9690 ft | 168 kts | 268° |
| 2026-05-04 04:45 | 34.74834 | -113.80428 | 9679 ft | 168 kts | 268° |
| 2026-05-04 04:45 | 34.74875 | -113.81841 | 9695 ft | 167 kts | 267° |
| 2026-05-04 04:45 | 34.74917 | -113.83250 | 9685 ft | 166 kts | 267° |
| 2026-05-04 04:47 | 34.75161 | -113.91831 | 9675 ft | 170 kts | 268° |
| 2026-05-04 04:47 | 34.75201 | -113.93261 | 9675 ft | 169 kts | 268° |
| 2026-05-04 04:47 | 34.75240 | -113.94684 | 9669 ft | 168 kts | 268° |
| 2026-05-04 04:47 | 34.75280 | -113.96088 | 9669 ft | 167 kts | 268° |
| 2026-05-04 04:48 | 34.75319 | -113.97498 | 9667 ft | 167 kts | 268° |
| 2026-05-04 04:49 | 34.75475 | -114.03166 | 9678 ft | 167 kts | 268° |
| 2026-05-04 04:49 | 34.75514 | -114.04585 | 9677 ft | 167 kts | 267° |
| 2026-05-04 04:49 | 34.75552 | -114.05995 | 9682 ft | 167 kts | 267° |
| 2026-05-04 04:49 | 34.75589 | -114.07407 | 9683 ft | 167 kts | 268° |
| 2026-05-04 04:50 | 34.75628 | -114.08820 | 9685 ft | 167 kts | 267° |
| 2026-05-04 04:50 | 34.75666 | -114.10235 | 9688 ft | 167 kts | 267° |
| 2026-05-04 04:50 | 34.75703 | -114.11635 | 9695 ft | 167 kts | 267° |
| 2026-05-04 04:50 | 34.75740 | -114.13053 | 9690 ft | 167 kts | 267° |
| 2026-05-04 04:51 | 34.75778 | -114.14471 | 9690 ft | 167 kts | 267° |
| 2026-05-04 04:51 | 34.75816 | -114.15884 | 9692 ft | 167 kts | 267° |
| 2026-05-04 04:51 | 34.75852 | -114.17296 | 9693 ft | 167 kts | 267° |
| 2026-05-04 04:51 | 34.75888 | -114.18684 | 9695 ft | 167 kts | 267° |
| 2026-05-04 04:52 | 34.75925 | -114.20112 | 9696 ft | 167 kts | 266° |
| 2026-05-04 04:52 | 34.75960 | -114.21524 | 9700 ft | 167 kts | 267° |
| 2026-05-04 04:52 | 34.75997 | -114.22913 | 9701 ft | 167 kts | 266° |
| 2026-05-04 04:52 | 34.76034 | -114.24331 | 9705 ft | 168 kts | 267° |
| 2026-05-04 04:53 | 34.76070 | -114.25750 | 9701 ft | 168 kts | 266° |
| 2026-05-04 04:53 | 34.76106 | -114.27172 | 9704 ft | 168 kts | 266° |
| 2026-05-04 04:53 | 34.76143 | -114.28590 | 9707 ft | 167 kts | 266° |
| 2026-05-04 04:53 | 34.76178 | -114.30003 | 9701 ft | 167 kts | 266° |
| 2026-05-04 04:54 | 34.76212 | -114.31419 | 9710 ft | 167 kts | 266° |
| 2026-05-04 04:54 | 34.76247 | -114.32832 | 9708 ft | 168 kts | 266° |
| 2026-05-04 04:54 | 34.76283 | -114.34251 | 9707 ft | 168 kts | 266° |
| 2026-05-04 04:54 | 34.76318 | -114.35666 | 9705 ft | 167 kts | 266° |
| 2026-05-04 04:55 | 34.76352 | -114.37076 | 9702 ft | 167 kts | 266° |
| 2026-05-04 04:55 | 34.76386 | -114.38474 | 9739 ft | 165 kts | 267° |
| 2026-05-04 04:55 | 34.76418 | -114.39864 | 9735 ft | 164 kts | 266° |
| 2026-05-04 04:55 | 34.76453 | -114.41248 | 9740 ft | 163 kts | 266° |
| 2026-05-04 04:56 | 34.76486 | -114.42620 | 9750 ft | 163 kts | 266° |
| 2026-05-04 04:56 | 34.76518 | -114.43983 | 9753 ft | 164 kts | 266° |
| 2026-05-04 04:56 | 34.76552 | -114.45382 | 9758 ft | 167 kts | 267° |
| 2026-05-04 04:56 | 34.76584 | -114.46818 | 9755 ft | 171 kts | 267° |
| 2026-05-04 04:57 | 34.76621 | -114.48251 | 9761 ft | 169 kts | 267° |
| 2026-05-04 04:57 | 34.76656 | -114.49694 | 9777 ft | 173 kts | 267° |
| 2026-05-04 04:57 | 34.76688 | -114.51179 | 9770 ft | 177 kts | 267° |
| 2026-05-04 04:57 | 34.76724 | -114.52673 | 9778 ft | 175 kts | 268° |
| 2026-05-04 04:58 | 34.76756 | -114.54169 | 9767 ft | 177 kts | 268° |
| 2026-05-04 04:58 | 34.76793 | -114.55680 | 9763 ft | 180 kts | 268° |
| 2026-05-04 04:58 | 34.76831 | -114.57191 | 9777 ft | 176 kts | 268° |
| 2026-05-04 04:58 | 34.76864 | -114.58670 | 9772 ft | 174 kts | 268° |
| 2026-05-04 04:59 | 34.76897 | -114.60136 | 9772 ft | 173 kts | 268° |
| 2026-05-04 04:59 | 34.76930 | -114.61599 | 9775 ft | 173 kts | 268° |
| 2026-05-04 04:59 | 34.76963 | -114.63058 | 9773 ft | 172 kts | 268° |
| 2026-05-04 04:59 | 34.76995 | -114.64509 | 9776 ft | 171 kts | 268° |
| 2026-05-04 05:00 | 34.77027 | -114.65939 | 9774 ft | 171 kts | 268° |
| 2026-05-04 05:00 | 34.77058 | -114.67392 | 9777 ft | 173 kts | 268° |
| 2026-05-04 05:00 | 34.77123 | -114.70303 | 9771 ft | 171 kts | 268° |
| 2026-05-04 05:01 | 34.77153 | -114.71754 | 9775 ft | 172 kts | 269° |
| 2026-05-04 05:01 | 34.77186 | -114.73211 | 9779 ft | 174 kts | 269° |
| 2026-05-04 05:01 | 34.77219 | -114.74685 | 9766 ft | 174 kts | 269° |
| 2026-05-04 05:01 | 34.77249 | -114.76155 | 9759 ft | 174 kts | 268° |
| 2026-05-04 05:02 | 34.77280 | -114.77631 | 9759 ft | 174 kts | 269° |
| 2026-05-04 05:02 | 34.77312 | -114.79080 | 9770 ft | 170 kts | 269° |
| 2026-05-04 05:02 | 34.77345 | -114.80527 | 9769 ft | 172 kts | 269° |
| 2026-05-04 05:02 | 34.77376 | -114.81971 | 9777 ft | 169 kts | 269° |
| 2026-05-04 05:03 | 34.77403 | -114.83402 | 9763 ft | 169 kts | 269° |
| 2026-05-04 05:03 | 34.77431 | -114.84822 | 9758 ft | 167 kts | 269° |
| 2026-05-04 05:04 | 34.77518 | -114.89053 | 9752 ft | 167 kts | 269° |
| 2026-05-04 05:04 | 34.77547 | -114.90461 | 9748 ft | 166 kts | 269° |
| 2026-05-04 05:04 | 34.77576 | -114.91861 | 9746 ft | 165 kts | 269° |
| 2026-05-04 05:06 | 34.77770 | -115.01674 | 9730 ft | 166 kts | 270° |
| 2026-05-04 05:06 | 34.77796 | -115.03072 | 9732 ft | 165 kts | 270° |
| 2026-05-04 05:06 | 34.77822 | -115.04469 | 9734 ft | 165 kts | 270° |
| 2026-05-04 05:07 | 34.77851 | -115.05855 | 9732 ft | 163 kts | 269° |
| 2026-05-04 05:07 | 34.77872 | -115.07220 | 9740 ft | 161 kts | 269° |
| 2026-05-04 05:07 | 34.77901 | -115.08582 | 9728 ft | 164 kts | 270° |
| 2026-05-04 05:09 | 34.78104 | -115.19698 | 9752 ft | 165 kts | 269° |
| 2026-05-04 05:09 | 34.78129 | -115.21098 | 9757 ft | 165 kts | 269° |
| 2026-05-04 05:10 | 34.78154 | -115.22498 | 9755 ft | 166 kts | 269° |
| 2026-05-04 05:10 | 34.78178 | -115.23894 | 9756 ft | 165 kts | 269° |
| 2026-05-04 05:10 | 34.78202 | -115.25291 | 9758 ft | 165 kts | 269° |
| 2026-05-04 05:10 | 34.78226 | -115.26683 | 9763 ft | 165 kts | 269° |
| 2026-05-04 05:11 | 34.78250 | -115.28076 | 9763 ft | 165 kts | 269° |
| 2026-05-04 05:11 | 34.78274 | -115.29466 | 9764 ft | 164 kts | 269° |
| 2026-05-04 05:11 | 34.78290 | -115.30388 | 9768 ft | 164 kts | 269° |
| 2026-05-04 05:11 | 34.78313 | -115.31774 | 9766 ft | 164 kts | 269° |
| 2026-05-04 05:12 | 34.78336 | -115.33156 | 9765 ft | 164 kts | 269° |
| 2026-05-04 05:12 | 34.78359 | -115.34548 | 9771 ft | 165 kts | 268° |
| 2026-05-04 05:12 | 34.78380 | -115.35939 | 9767 ft | 164 kts | 269° |
| 2026-05-04 05:12 | 34.78404 | -115.37332 | 9771 ft | 164 kts | 268° |
| 2026-05-04 05:13 | 34.78428 | -115.38701 | 9770 ft | 164 kts | 268° |
| 2026-05-04 05:13 | 34.78450 | -115.40087 | 9774 ft | 164 kts | 269° |
| 2026-05-04 05:13 | 34.78473 | -115.41491 | 9773 ft | 164 kts | 269° |
| 2026-05-04 05:13 | 34.78496 | -115.42875 | 9780 ft | 164 kts | 268° |
| 2026-05-04 05:14 | 34.78517 | -115.44244 | 9778 ft | 164 kts | 268° |
| 2026-05-04 05:14 | 34.78538 | -115.45632 | 9784 ft | 164 kts | 268° |
| 2026-05-04 05:14 | 34.78560 | -115.47020 | 9784 ft | 164 kts | 268° |
| 2026-05-04 05:14 | 34.78581 | -115.48406 | 9786 ft | 164 kts | 268° |
| 2026-05-04 05:15 | 34.78602 | -115.49797 | 9780 ft | 165 kts | 268° |
| 2026-05-04 05:15 | 34.78624 | -115.51192 | 9782 ft | 165 kts | 268° |
| 2026-05-04 05:15 | 34.78645 | -115.52583 | 9783 ft | 164 kts | 268° |
| 2026-05-04 05:15 | 34.78666 | -115.53972 | 9782 ft | 164 kts | 268° |
| 2026-05-04 05:16 | 34.78687 | -115.55361 | 9788 ft | 165 kts | 268° |
| 2026-05-04 05:16 | 34.78707 | -115.56742 | 9792 ft | 165 kts | 267° |
| 2026-05-04 05:16 | 34.78727 | -115.58142 | 9788 ft | 165 kts | 267° |
| 2026-05-04 05:16 | 34.78748 | -115.59528 | 9787 ft | 163 kts | 267° |
| 2026-05-04 05:17 | 34.78768 | -115.60899 | 9793 ft | 162 kts | 267° |
| 2026-05-04 05:17 | 34.78787 | -115.62275 | 9793 ft | 163 kts | 267° |
| 2026-05-04 05:17 | 34.78807 | -115.63661 | 9795 ft | 165 kts | 267° |
| 2026-05-04 05:17 | 34.78833 | -115.65061 | 9802 ft | 167 kts | 267° |
| 2026-05-04 05:18 | 34.78844 | -115.66500 | 9784 ft | 170 kts | 266° |
| 2026-05-04 05:18 | 34.78865 | -115.67939 | 9793 ft | 172 kts | 268° |
| 2026-05-04 05:18 | 34.78889 | -115.69406 | 9793 ft | 174 kts | 267° |
| 2026-05-04 05:18 | 34.78907 | -115.70883 | 9791 ft | 174 kts | 267° |
| 2026-05-04 05:19 | 34.78926 | -115.72357 | 9800 ft | 175 kts | 268° |
| 2026-05-04 05:19 | 34.78944 | -115.73845 | 9793 ft | 175 kts | 267° |
| 2026-05-04 05:19 | 34.78969 | -115.75328 | 9782 ft | 176 kts | 268° |
| 2026-05-04 05:19 | 34.78990 | -115.76799 | 9788 ft | 173 kts | 267° |
| 2026-05-04 05:20 | 34.79002 | -115.78231 | 9807 ft | 172 kts | 266° |
| 2026-05-04 05:20 | 34.79019 | -115.79676 | 9798 ft | 170 kts | 266° |
| 2026-05-04 05:20 | 34.79041 | -115.81099 | 9799 ft | 166 kts | 267° |
| 2026-05-04 05:20 | 34.79064 | -115.82501 | 9803 ft | 167 kts | 267° |
| 2026-05-04 05:21 | 34.79082 | -115.83911 | 9810 ft | 167 kts | 266° |
| 2026-05-04 05:21 | 34.79095 | -115.85326 | 9807 ft | 168 kts | 266° |
| 2026-05-04 05:21 | 34.79113 | -115.86752 | 9800 ft | 169 kts | 267° |
| 2026-05-04 05:21 | 34.79134 | -115.88180 | 9806 ft | 169 kts | 266° |
| 2026-05-04 05:22 | 34.79146 | -115.89610 | 9803 ft | 169 kts | 267° |
| 2026-05-04 05:22 | 34.79164 | -115.91031 | 9803 ft | 167 kts | 266° |
| 2026-05-04 05:22 | 34.79182 | -115.92444 | 9805 ft | 167 kts | 267° |
| 2026-05-04 05:22 | 34.79200 | -115.93864 | 9806 ft | 169 kts | 266° |
| 2026-05-04 05:23 | 34.79236 | -115.95278 | 9806 ft | 169 kts | 267° |
| 2026-05-04 05:23 | 34.79240 | -115.96707 | 9808 ft | 169 kts | 266° |
| 2026-05-04 05:23 | 34.79247 | -115.98147 | 9802 ft | 171 kts | 266° |
| 2026-05-04 05:23 | 34.79261 | -115.99604 | 9796 ft | 173 kts | 267° |
| 2026-05-04 05:24 | 34.79277 | -116.01064 | 9798 ft | 172 kts | 267° |
| 2026-05-04 05:24 | 34.79296 | -116.02512 | 9804 ft | 171 kts | 266° |
| 2026-05-04 05:24 | 34.79312 | -116.03957 | 9794 ft | 171 kts | 266° |
| 2026-05-04 05:24 | 34.79325 | -116.05391 | 9794 ft | 168 kts | 267° |
| 2026-05-04 05:25 | 34.79344 | -116.06804 | 9799 ft | 166 kts | 266° |
| 2026-05-04 05:25 | 34.79360 | -116.08205 | 9804 ft | 166 kts | 266° |
| 2026-05-04 05:25 | 34.79374 | -116.09608 | 9803 ft | 166 kts | 266° |
| 2026-05-04 05:25 | 34.79387 | -116.11013 | 9798 ft | 171 kts | 267° |
| 2026-05-04 05:26 | 34.79401 | -116.12476 | 9800 ft | 175 kts | 266° |
| 2026-05-04 05:26 | 34.79416 | -116.13963 | 9800 ft | 177 kts | 266° |
| 2026-05-04 05:26 | 34.79432 | -116.15462 | 9807 ft | 178 kts | 267° |
| 2026-05-04 05:26 | 34.79448 | -116.16962 | 9795 ft | 177 kts | 266° |
| 2026-05-04 05:27 | 34.79462 | -116.18456 | 9802 ft | 177 kts | 266° |
| 2026-05-04 05:28 | 34.79552 | -116.28711 | 9810 ft | 178 kts | 266° |
| 2026-05-04 05:29 | 34.79563 | -116.30240 | 9794 ft | 182 kts | 266° |
| 2026-05-04 05:29 | 34.79591 | -116.31779 | 9786 ft | 181 kts | 266° |
| 2026-05-04 05:29 | 34.79605 | -116.33288 | 9793 ft | 176 kts | 265° |
| 2026-05-04 05:29 | 34.79612 | -116.34772 | 9794 ft | 174 kts | 266° |
| 2026-05-04 05:31 | 34.79692 | -116.44987 | 9835 ft | 173 kts | 265° |
| 2026-05-04 05:31 | 34.79686 | -116.46450 | 9838 ft | 172 kts | 261° |
| 2026-05-04 05:32 | 34.79546 | -116.47894 | 9850 ft | 171 kts | 258° |
| 2026-05-04 05:32 | 34.79406 | -116.49336 | 9852 ft | 173 kts | 258° |
| 2026-05-04 05:32 | 34.79264 | -116.50793 | 9856 ft | 173 kts | 259° |
| 2026-05-04 05:33 | 34.78985 | -116.53686 | 9865 ft | 171 kts | 259° |
| 2026-05-04 05:33 | 34.78845 | -116.55118 | 9873 ft | 170 kts | 258° |
| 2026-05-04 05:33 | 34.78707 | -116.56533 | 9875 ft | 170 kts | 258° |
| 2026-05-04 05:33 | 34.78566 | -116.57972 | 9882 ft | 169 kts | 258° |
| 2026-05-04 05:34 | 34.78429 | -116.59376 | 9884 ft | 169 kts | 258° |
| 2026-05-04 05:34 | 34.78289 | -116.60813 | 9885 ft | 169 kts | 258° |
| 2026-05-04 05:34 | 34.78152 | -116.62211 | 9892 ft | 169 kts | 258° |
| 2026-05-04 05:34 | 34.78011 | -116.63631 | 9897 ft | 170 kts | 258° |
| 2026-05-04 05:35 | 34.77872 | -116.65063 | 9893 ft | 171 kts | 258° |
| 2026-05-04 05:35 | 34.77731 | -116.66495 | 9903 ft | 170 kts | 259° |
| 2026-05-04 05:35 | 34.77590 | -116.67925 | 9904 ft | 170 kts | 259° |
| 2026-05-04 05:35 | 34.77448 | -116.69369 | 9911 ft | 173 kts | 258° |
| 2026-05-04 05:36 | 34.77305 | -116.70819 | 9904 ft | 172 kts | 258° |
| 2026-05-04 05:36 | 34.77160 | -116.72278 | 9909 ft | 174 kts | 258° |
| 2026-05-04 05:36 | 34.77018 | -116.73726 | 9913 ft | 172 kts | 258° |
| 2026-05-04 05:36 | 34.76874 | -116.75169 | 9912 ft | 172 kts | 257° |
| 2026-05-04 05:37 | 34.76732 | -116.76610 | 9916 ft | 170 kts | 258° |
| 2026-05-04 05:37 | 34.76586 | -116.78038 | 9917 ft | 170 kts | 258° |
| 2026-05-04 05:37 | 34.76445 | -116.79467 | 9916 ft | 170 kts | 258° |
| 2026-05-04 05:38 | 34.76164 | -116.82317 | 9916 ft | 171 kts | 258° |
| 2026-05-04 05:38 | 34.76022 | -116.83743 | 9912 ft | 169 kts | 257° |
| 2026-05-04 05:38 | 34.75881 | -116.85165 | 9912 ft | 170 kts | 258° |
| 2026-05-04 05:38 | 34.75737 | -116.86593 | 9907 ft | 170 kts | 258° |
| 2026-05-04 05:39 | 34.75594 | -116.88016 | 9908 ft | 169 kts | 259° |
| 2026-05-04 05:39 | 34.75312 | -116.90846 | 9907 ft | 169 kts | 258° |
| 2026-05-04 05:39 | 34.75169 | -116.92269 | 9910 ft | 169 kts | 258° |
| 2026-05-04 05:40 | 34.74884 | -116.95098 | 9894 ft | 168 kts | 258° |
| 2026-05-04 05:40 | 34.74742 | -116.96509 | 9891 ft | 168 kts | 259° |
| 2026-05-04 05:40 | 34.74599 | -116.97920 | 9897 ft | 168 kts | 259° |
| 2026-05-04 05:41 | 34.74459 | -116.99327 | 9894 ft | 167 kts | 259° |
| 2026-05-04 05:41 | 34.74317 | -117.00731 | 9892 ft | 167 kts | 258° |
| 2026-05-04 05:41 | 34.74175 | -117.02134 | 9892 ft | 167 kts | 259° |
| 2026-05-04 05:41 | 34.74034 | -117.03533 | 9892 ft | 167 kts | 259° |
| 2026-05-04 05:42 | 34.73891 | -117.04934 | 9892 ft | 167 kts | 260° |
| 2026-05-04 05:42 | 34.73748 | -117.06331 | 9882 ft | 167 kts | 259° |
| 2026-05-04 05:42 | 34.73607 | -117.07729 | 9880 ft | 166 kts | 259° |
| 2026-05-04 05:42 | 34.73464 | -117.09121 | 9922 ft | 164 kts | 258° |
| 2026-05-04 05:43 | 34.73323 | -117.10504 | 9919 ft | 165 kts | 259° |
| 2026-05-04 05:43 | 34.73183 | -117.11871 | 9927 ft | 165 kts | 259° |
| 2026-05-04 05:43 | 34.73043 | -117.13250 | 9935 ft | 164 kts | 259° |
| 2026-05-04 05:45 | 34.72046 | -117.22925 | 9983 ft | 164 kts | 260° |
| 2026-05-04 05:45 | 34.71908 | -117.24260 | 9986 ft | 164 kts | 259° |
| 2026-05-04 05:47 | 34.70897 | -117.33995 | 10018 ft | 168 kts | 260° |
| 2026-05-04 05:47 | 34.70748 | -117.35413 | 10000 ft | 170 kts | 259° |
| 2026-05-04 05:47 | 34.70600 | -117.36835 | 10012 ft | 168 kts | 260° |
| 2026-05-04 05:48 | 34.70455 | -117.38234 | 10012 ft | 166 kts | 260° |
| 2026-05-04 05:48 | 34.70310 | -117.39615 | 10014 ft | 165 kts | 259° |
| 2026-05-04 05:48 | 34.70165 | -117.40996 | 10013 ft | 165 kts | 259° |
| 2026-05-04 05:48 | 34.70021 | -117.42376 | 10017 ft | 164 kts | 260° |
| 2026-05-04 05:49 | 34.69877 | -117.43753 | 10015 ft | 164 kts | 259° |
| 2026-05-04 05:49 | 34.69733 | -117.45123 | 10016 ft | 163 kts | 259° |
| 2026-05-04 05:49 | 34.69589 | -117.46491 | 10014 ft | 163 kts | 259° |
| 2026-05-04 05:49 | 34.69448 | -117.47837 | 10014 ft | 162 kts | 259° |
| 2026-05-04 05:51 | 34.68437 | -117.57406 | 9990 ft | 164 kts | 259° |
| 2026-05-04 05:51 | 34.68291 | -117.58780 | 9989 ft | 164 kts | 259° |
| 2026-05-04 05:52 | 34.68146 | -117.60152 | 9983 ft | 164 kts | 259° |
| 2026-05-04 05:52 | 34.68000 | -117.61523 | 9977 ft | 163 kts | 259° |
| 2026-05-04 05:52 | 34.67854 | -117.62896 | 9975 ft | 163 kts | 259° |
| 2026-05-04 05:52 | 34.67708 | -117.64255 | 9973 ft | 162 kts | 259° |
| 2026-05-04 05:53 | 34.67563 | -117.65618 | 9968 ft | 162 kts | 259° |
| 2026-05-04 05:54 | 34.66549 | -117.75091 | 9935 ft | 162 kts | 259° |
| 2026-05-04 05:55 | 34.66403 | -117.76449 | 9935 ft | 162 kts | 259° |
| 2026-05-04 05:55 | 34.66257 | -117.77803 | 9954 ft | 162 kts | 259° |
| 2026-05-04 05:55 | 34.66111 | -117.79157 | 9961 ft | 161 kts | 259° |
| 2026-05-04 05:55 | 34.65964 | -117.80512 | 9967 ft | 162 kts | 259° |
| 2026-05-04 05:56 | 34.65818 | -117.81866 | 9968 ft | 162 kts | 258° |
| 2026-05-04 05:56 | 34.65673 | -117.83202 | 9970 ft | 161 kts | 259° |
| 2026-05-04 05:56 | 34.65527 | -117.84551 | 9972 ft | 161 kts | 258° |
| 2026-05-04 05:56 | 34.65382 | -117.85898 | 9976 ft | 161 kts | 259° |
| 2026-05-04 05:57 | 34.65234 | -117.87250 | 9974 ft | 161 kts | 258° |
| 2026-05-04 05:57 | 34.65087 | -117.88600 | 9988 ft | 160 kts | 259° |
| 2026-05-04 05:57 | 34.64941 | -117.89941 | 9989 ft | 160 kts | 259° |
| 2026-05-04 05:57 | 34.64794 | -117.91286 | 9996 ft | 160 kts | 259° |
| 2026-05-04 05:58 | 34.64648 | -117.92626 | 9999 ft | 160 kts | 259° |
| 2026-05-04 05:58 | 34.64503 | -117.93961 | 9997 ft | 159 kts | 258° |
| 2026-05-04 05:58 | 34.64357 | -117.95297 | 9999 ft | 159 kts | 258° |
| 2026-05-04 05:58 | 34.64213 | -117.96618 | 10006 ft | 160 kts | 258° |
| 2026-05-04 05:59 | 34.64114 | -117.97519 | 10010 ft | 160 kts | 258° |
| 2026-05-04 05:59 | 34.63920 | -117.99289 | 10011 ft | 160 kts | 258° |
| 2026-05-04 05:59 | 34.63773 | -118.00624 | 10012 ft | 159 kts | 258° |
| 2026-05-04 05:59 | 34.63674 | -118.01528 | 10013 ft | 160 kts | 258° |
| 2026-05-04 06:00 | 34.63479 | -118.03297 | 10011 ft | 160 kts | 258° |
| 2026-05-04 06:00 | 34.63380 | -118.04197 | 10012 ft | 160 kts | 258° |
| 2026-05-04 06:00 | 34.63229 | -118.05530 | 10015 ft | 159 kts | 256° |
| 2026-05-04 06:00 | 34.62856 | -118.06773 | 10006 ft | 156 kts | 239° |
| 2026-05-04 06:01 | 34.62227 | -118.07843 | 10013 ft | 155 kts | 232° |
| 2026-05-04 06:01 | 34.61586 | -118.08873 | 10017 ft | 155 kts | 232° |
| 2026-05-04 06:03 | 34.57024 | -118.16186 | 10016 ft | 156 kts | 232° |
| 2026-05-04 06:03 | 34.56367 | -118.17238 | 10014 ft | 156 kts | 232° |
| 2026-05-04 06:05 | 34.51700 | -118.24709 | 9457 ft | 164 kts | 233° |
| 2026-05-04 06:05 | 34.50387 | -118.26808 | 8941 ft | 154 kts | 233° |
| 2026-05-04 06:05 | 34.49740 | -118.27837 | 8691 ft | 153 kts | 233° |
| 2026-05-04 06:06 | 34.49097 | -118.28862 | 8436 ft | 152 kts | 233° |
| 2026-05-04 06:06 | 34.48459 | -118.29878 | 8183 ft | 151 kts | 233° |
| 2026-05-04 06:06 | 34.47825 | -118.30889 | 7934 ft | 151 kts | 233° |
| 2026-05-04 06:06 | 34.47193 | -118.31895 | 7686 ft | 150 kts | 233° |
| 2026-05-04 06:07 | 34.46572 | -118.32885 | 7446 ft | 149 kts | 233° |
| 2026-05-04 06:07 | 34.45948 | -118.33879 | 7211 ft | 147 kts | 233° |
| 2026-05-04 06:07 | 34.45328 | -118.34865 | 7025 ft | 144 kts | 234° |
| 2026-05-04 06:07 | 34.44754 | -118.35779 | 7024 ft | 130 kts | 234° |
| 2026-05-04 06:08 | 34.44225 | -118.36619 | 7017 ft | 121 kts | 234° |
| 2026-05-04 06:08 | 34.43730 | -118.37404 | 7012 ft | 114 kts | 234° |
| 2026-05-04 06:08 | 34.43260 | -118.38152 | 7020 ft | 109 kts | 234° |
| 2026-05-04 06:08 | 34.42809 | -118.38869 | 7016 ft | 105 kts | 234° |
| 2026-05-04 06:09 | 34.42371 | -118.39567 | 7026 ft | 103 kts | 234° |
| 2026-05-04 06:09 | 34.41943 | -118.40246 | 6989 ft | 105 kts | 234° |
| 2026-05-04 06:11 | 34.36739 | -118.39238 | 6476 ft | 132 kts | 157° |
| 2026-05-04 06:11 | 34.35948 | -118.38777 | 6400 ft | 131 kts | 156° |
| 2026-05-04 06:13 | 34.30226 | -118.35446 | 5348 ft | 135 kts | 156° |
| 2026-05-04 06:14 | 34.24918 | -118.32361 | 4596 ft | 145 kts | 155° |
| 2026-05-04 06:14 | 34.24001 | -118.31828 | 4466 ft | 148 kts | 155° |
| 2026-05-04 06:15 | 34.23072 | -118.31289 | 4338 ft | 149 kts | 155° |
| 2026-05-04 06:15 | 34.22131 | -118.30743 | 4210 ft | 151 kts | 155° |
| 2026-05-04 06:15 | 34.21185 | -118.30194 | 4082 ft | 151 kts | 155° |
| 2026-05-04 06:15 | 34.20249 | -118.29652 | 3949 ft | 147 kts | 155° |
| 2026-05-04 06:16 | 34.19333 | -118.29120 | 3822 ft | 145 kts | 155° |
| 2026-05-04 06:16 | 34.18457 | -118.28613 | 3710 ft | 143 kts | 155° |
| 2026-05-04 06:16 | 34.17572 | -118.28100 | 3611 ft | 143 kts | 155° |
| 2026-05-04 06:16 | 34.16679 | -118.27582 | 3510 ft | 143 kts | 155° |
| 2026-05-04 06:17 | 34.15774 | -118.27059 | 3409 ft | 144 kts | 155° |
| 2026-05-04 06:17 | 34.14875 | -118.26529 | 3293 ft | 144 kts | 165° |
| 2026-05-04 06:17 | 34.13914 | -118.26672 | 3188 ft | 142 kts | 210° |
| 2026-05-04 06:17 | 34.13329 | -118.27602 | 3095 ft | 143 kts | 255° |
| 2026-05-04 06:18 | 34.13251 | -118.28783 | 3050 ft | 137 kts | 269° |
| 2026-05-04 06:18 | 34.13238 | -118.29901 | 3050 ft | 129 kts | 266° |
| 2026-05-04 06:18 | 34.13094 | -118.30952 | 3047 ft | 125 kts | 252° |
| 2026-05-04 06:20 | 34.08897 | -118.36431 | 2095 ft | 129 kts | 226° |
| 2026-05-04 06:20 | 34.08279 | -118.37166 | 1912 ft | 117 kts | 226° |
| 2026-05-04 06:21 | 34.06154 | -118.39688 | 1354 ft | 108 kts | 225° |
| 2026-05-04 06:21 | 34.05617 | -118.40329 | 1208 ft | 109 kts | 226° |
| 2026-05-04 06:22 | 34.05088 | -118.40960 | 1051 ft | 104 kts | 225° |
| 2026-05-04 06:22 | 34.04588 | -118.41552 | 915 ft | 98 kts | 225° |
| 2026-05-04 06:25 | 34.01381 | -118.45480 | 142 ft | 0 kts | 43° |
| 2026-05-04 06:26 | 34.01395 | -118.45466 | 143 ft | 9 kts | 42° |
| 2026-05-04 06:26 | 34.01440 | -118.45413 | 145 ft | 9 kts | 42° |
| 2026-05-04 06:26 | 34.01485 | -118.45358 | 147 ft | 9 kts | 43° |
| 2026-05-04 06:27 | 34.01577 | -118.45249 | 152 ft | 0 kts | 44° |
| 2026-05-04 06:28 | 34.01579 | -118.45250 | 152 ft | 1 kts | 273° |
| 2026-05-04 06:28 | 34.01595 | -118.45286 | 151 ft | 4 kts | 312° |
| 2026-05-04 06:28 | 34.01601 | -118.45293 | 151 ft | 0 kts | 312° |